createdAt,value
2022-11-22T00:01:29.501Z,2.40
2022-11-22T00:03:56.014Z,2.67
2022-11-22T00:06:22.351Z,1.85
2022-11-22T00:08:49.019Z,2.88
2022-11-22T00:11:15.377Z,2.78
2022-11-22T00:13:41.776Z,2.40
2022-11-22T00:16:08.585Z,2.90
2022-11-22T00:18:35.010Z,2.80
2022-11-22T00:21:06.528Z,2.78
2022-11-22T00:23:33.143Z,2.42
2022-11-22T00:25:59.490Z,2.63
2022-11-22T00:28:25.966Z,2.78
2022-11-22T00:30:52.306Z,3.03
2022-11-22T00:33:18.782Z,2.45
2022-11-22T00:35:46.223Z,3.13
2022-11-22T00:38:12.560Z,2.55
2022-11-22T00:40:38.919Z,2.72
2022-11-22T00:43:05.274Z,3.30
2022-11-22T00:45:31.647Z,3.65
2022-11-22T00:47:57.980Z,2.88
2022-11-22T00:50:24.302Z,2.70
2022-11-22T00:52:50.641Z,3.60
2022-11-22T00:55:17.227Z,3.00
2022-11-22T00:57:43.653Z,3.00
2022-11-22T01:00:10.492Z,2.92
2022-11-22T01:02:36.818Z,3.10
2022-11-22T01:05:03.430Z,2.67
2022-11-22T01:07:29.793Z,3.13
2022-11-22T01:09:56.186Z,2.42
2022-11-22T01:12:22.546Z,2.70
2022-11-22T01:14:49.025Z,2.80
2022-11-22T01:17:15.352Z,2.70
2022-11-22T01:19:41.817Z,2.90
2022-11-22T01:22:08.178Z,2.42
2022-11-22T01:24:34.527Z,2.83
2022-11-22T01:27:00.845Z,2.90
2022-11-22T01:29:27.324Z,2.40
2022-11-22T01:31:53.785Z,2.17
2022-11-22T01:34:20.123Z,2.92
2022-11-22T01:36:46.633Z,2.63
2022-11-22T01:39:12.967Z,2.50
2022-11-22T01:41:39.313Z,2.42
2022-11-22T01:44:27.361Z,2.30
2022-11-22T01:46:57.891Z,2.47
2022-11-22T01:49:35.291Z,2.33
2022-11-22T01:52:13.650Z,2.60
2022-11-22T01:54:42.980Z,2.22
2022-11-22T01:57:19.581Z,2.50
2022-11-22T01:59:53.639Z,2.42
2022-11-22T02:02:20.068Z,2.20
2022-11-22T02:04:47.432Z,2.60
2022-11-22T02:07:25.246Z,2.28
2022-11-22T02:09:53.073Z,2.20
2022-11-22T02:12:23.349Z,2.45
2022-11-22T02:14:50.400Z,2.35
2022-11-22T02:17:16.722Z,2.33
2022-11-22T02:19:49.208Z,2.60
2022-11-22T02:22:24.734Z,2.55
2022-11-22T02:25:03.474Z,2.38
2022-11-22T02:27:29.862Z,2.10
2022-11-22T02:29:56.191Z,2.30
2022-11-22T02:32:22.547Z,2.08
2022-11-22T02:34:50.814Z,1.92
2022-11-22T02:37:31.105Z,2.28
2022-11-22T02:40:02.782Z,1.55
2022-11-22T02:42:30.720Z,1.83
2022-11-22T02:44:57.086Z,1.77
2022-11-22T02:47:23.422Z,2.35
2022-11-22T02:49:49.817Z,1.70
2022-11-22T02:52:18.276Z,1.60
2022-11-22T02:54:45.152Z,3.07
2022-11-22T02:57:11.589Z,1.50
2022-11-22T02:59:37.977Z,1.70
2022-11-22T03:02:04.411Z,1.92
2022-11-22T03:04:30.868Z,1.95
2022-11-22T03:06:59.045Z,1.60
2022-11-22T03:09:27.175Z,1.33
2022-11-22T03:11:54.314Z,1.13
2022-11-22T03:14:21.030Z,1.20
2022-11-22T03:16:48.235Z,1.33
2022-11-22T03:19:14.866Z,1.40
2022-11-22T03:21:42.841Z,1.35
2022-11-22T03:24:10.428Z,0.85
2022-11-22T03:26:37.232Z,0.77
2022-11-22T03:29:03.905Z,1.27
2022-11-22T03:31:30.436Z,1.15
2022-11-22T03:33:57.080Z,0.90
2022-11-22T03:36:23.510Z,1.25
2022-11-22T03:38:50.599Z,0.80
2022-11-22T03:41:17.044Z,1.02
2022-11-22T03:43:43.388Z,1.10
2022-11-22T03:46:19.424Z,1.07
2022-11-22T03:48:46.193Z,0.98
2022-11-22T03:51:12.664Z,0.80
2022-11-22T03:53:39.307Z,0.50
2022-11-22T03:56:06.331Z,1.13
2022-11-22T03:58:33.643Z,0.77
2022-11-22T04:01:00.513Z,1.58
2022-11-22T04:03:27.036Z,1.20
2022-11-22T04:05:53.516Z,0.60
2022-11-22T04:08:19.907Z,1.52
2022-11-22T04:10:49.036Z,1.10
2022-11-22T04:13:15.459Z,0.75
2022-11-22T04:15:41.901Z,1.58
2022-11-22T04:18:13.347Z,0.95
2022-11-22T04:20:58.997Z,0.57
2022-11-22T04:23:32.198Z,0.70
2022-11-22T04:26:00.131Z,0.88
2022-11-22T04:28:53.629Z,0.80
2022-11-22T04:31:31.474Z,0.70
2022-11-22T04:33:57.813Z,0.43
2022-11-22T04:36:24.175Z,0.30
2022-11-22T04:38:50.531Z,0.73
2022-11-22T04:41:16.876Z,0.63
2022-11-22T04:44:01.850Z,0.85
2022-11-22T04:46:28.283Z,0.40
2022-11-22T04:48:54.622Z,0.40
2022-11-22T04:51:39.639Z,0.88
2022-11-22T04:54:05.959Z,0.30
2022-11-22T04:56:32.296Z,1.10
2022-11-22T04:58:58.630Z,0.57
2022-11-22T05:01:25.037Z,0.67
2022-11-22T05:03:51.532Z,0.75
2022-11-22T05:06:17.859Z,0.70
2022-11-22T05:08:44.181Z,1.00
2022-11-22T05:11:10.564Z,0.60
2022-11-22T05:13:39.414Z,0.50
2022-11-22T05:16:09.420Z,0.85
2022-11-22T05:18:36.456Z,0.70
2022-11-22T05:21:10.418Z,0.80
2022-11-22T05:23:54.994Z,0.65
2022-11-22T05:26:25.851Z,0.60
2022-11-22T05:28:52.613Z,0.45
2022-11-22T05:31:25.175Z,0.65
2022-11-22T05:33:53.511Z,0.60
2022-11-22T05:36:20.680Z,0.88
2022-11-22T05:38:47.418Z,0.60
2022-11-22T05:41:15.513Z,0.70
2022-11-22T05:43:41.859Z,0.35
2022-11-22T05:46:10.706Z,0.30
2022-11-22T05:48:38.874Z,0.32
2022-11-22T05:51:11.693Z,0.43
2022-11-22T05:53:39.015Z,0.57
2022-11-22T05:56:10.849Z,0.70
2022-11-22T05:58:38.053Z,0.63
2022-11-22T06:01:15.584Z,0.73
2022-11-22T06:03:42.077Z,0.40
2022-11-22T06:06:09.258Z,0.30
2022-11-22T06:08:40.901Z,0.68
2022-11-22T06:11:19.188Z,1.00
2022-11-22T06:13:47.371Z,1.02
2022-11-22T06:16:14.831Z,0.30
2022-11-22T06:18:41.581Z,0.57
2022-11-22T06:21:11.691Z,0.52
2022-11-22T06:23:38.723Z,0.60
2022-11-22T06:26:10.589Z,0.68
2022-11-22T06:28:38.695Z,0.50
2022-11-22T06:31:14.185Z,0.50
2022-11-22T06:33:41.486Z,1.00
2022-11-22T06:36:16.366Z,0.52
2022-11-22T06:38:44.181Z,0.50
2022-11-22T06:41:14.022Z,0.70
2022-11-22T06:43:48.043Z,0.80
2022-11-22T06:46:15.945Z,0.98
2022-11-22T06:48:42.759Z,0.50
2022-11-22T06:51:16.813Z,0.85
2022-11-22T06:53:48.545Z,0.50
2022-11-22T06:56:18.666Z,0.77
2022-11-22T06:58:45.860Z,1.00
2022-11-22T07:01:36.252Z,0.45
2022-11-22T07:04:03.461Z,0.50
2022-11-22T07:06:39.456Z,0.87
2022-11-22T07:09:08.611Z,0.73
2022-11-22T07:11:36.204Z,0.60
2022-11-22T07:14:08.349Z,0.98
2022-11-22T07:16:36.870Z,0.65
2022-11-22T07:19:03.398Z,0.83
2022-11-22T07:21:29.877Z,0.70
2022-11-22T07:23:56.633Z,0.43
2022-11-22T07:26:25.603Z,0.80
2022-11-22T07:28:52.016Z,0.47
2022-11-22T07:31:18.773Z,0.80
2022-11-22T07:33:45.692Z,0.77
2022-11-22T07:36:18.266Z,0.47
2022-11-22T07:38:45.524Z,0.68
2022-11-22T07:41:11.899Z,0.73
2022-11-22T07:43:38.313Z,1.07
2022-11-22T07:46:08.169Z,0.50
2022-11-22T07:48:34.836Z,0.47
2022-11-22T07:51:07.879Z,1.10
2022-11-22T07:53:35.144Z,0.45
2022-11-22T07:56:05.249Z,0.70
2022-11-22T07:58:32.685Z,0.50
2022-11-22T08:01:04.821Z,0.88
2022-11-22T08:03:31.202Z,0.70
2022-11-22T08:06:02.091Z,0.65
2022-11-22T08:08:28.542Z,0.52
2022-11-22T08:10:55.109Z,0.80
2022-11-22T08:13:22.048Z,1.73
2022-11-22T08:15:50.804Z,0.65
2022-11-22T08:18:18.903Z,2.00
2022-11-22T08:20:45.265Z,0.90
2022-11-22T08:23:11.862Z,0.82
2022-11-22T08:25:38.258Z,0.68
2022-11-22T08:28:04.818Z,1.25
2022-11-22T08:30:31.179Z,1.10
2022-11-22T08:32:57.583Z,1.05
2022-11-22T08:35:24.006Z,1.35
2022-11-22T08:37:50.339Z,1.10
2022-11-22T08:40:16.800Z,0.73
2022-11-22T08:42:43.159Z,1.52
2022-11-22T08:45:09.951Z,0.60
2022-11-22T08:47:36.285Z,0.88
2022-11-22T08:50:02.743Z,0.75
2022-11-22T08:52:29.079Z,0.70
2022-11-22T08:54:55.429Z,0.88
2022-11-22T08:57:21.857Z,0.70
2022-11-22T08:59:48.240Z,1.20
2022-11-22T09:02:14.719Z,0.80
2022-11-22T09:04:41.086Z,0.95
2022-11-22T09:09:53.799Z,0.50
2022-11-22T09:12:20.679Z,0.60
2022-11-22T09:14:47.573Z,0.57
2022-11-22T09:17:17.885Z,1.10
2022-11-22T09:19:44.573Z,0.88
2022-11-22T09:22:10.917Z,0.60
2022-11-22T09:24:37.322Z,1.10
2022-11-22T09:27:03.650Z,0.80
2022-11-22T09:29:30.178Z,0.85
2022-11-22T09:31:57.276Z,0.80
2022-11-22T09:34:23.619Z,0.70
2022-11-22T09:36:49.993Z,0.82
2022-11-22T09:39:16.558Z,0.70
2022-11-22T09:42:07.191Z,0.60
2022-11-22T09:44:50.113Z,0.60
2022-11-22T09:47:41.779Z,0.50
2022-11-22T09:50:33.767Z,0.75
2022-11-22T09:53:11.857Z,1.02
2022-11-22T09:55:42.953Z,0.80
2022-11-22T09:58:33.366Z,0.80
2022-11-22T10:01:07.223Z,0.73
2022-11-22T10:03:48.810Z,0.30
2022-11-22T10:06:24.337Z,1.10
2022-11-22T10:09:12.082Z,1.00
2022-11-22T10:12:17.411Z,1.35
2022-11-22T10:15:04.949Z,0.70
2022-11-22T10:17:45.603Z,0.80
2022-11-22T10:20:28.275Z,0.60
2022-11-22T10:22:55.523Z,0.80
2022-11-22T10:25:35.649Z,0.80
2022-11-22T10:28:16.437Z,0.70
2022-11-22T10:30:49.052Z,0.40
2022-11-22T10:33:25.553Z,0.35
2022-11-22T10:36:13.406Z,0.77
2022-11-22T10:38:48.742Z,0.70
2022-11-22T10:41:39.866Z,0.50
2022-11-22T10:44:26.174Z,0.60
2022-11-22T10:47:18.779Z,0.50
2022-11-22T10:50:00.449Z,0.98
2022-11-22T10:52:40.505Z,0.63
2022-11-22T10:55:19.286Z,1.13
2022-11-22T10:58:24.310Z,0.80
2022-11-22T11:01:19.620Z,1.13
2022-11-22T11:03:48.906Z,0.77
2022-11-22T11:06:57.007Z,0.80
2022-11-22T11:12:43.482Z,0.68
2022-11-22T11:15:22.746Z,0.50
2022-11-22T11:18:01.532Z,0.47
2022-11-22T11:20:41.986Z,0.38
2022-11-22T11:23:15.311Z,0.50
2022-11-22T11:25:44.977Z,0.65
2022-11-22T11:28:20.230Z,0.50
2022-11-22T11:30:50.249Z,0.60
2022-11-22T11:33:25.701Z,0.65
2022-11-22T11:35:56.279Z,0.52
2022-11-22T11:38:36.764Z,0.45
2022-11-22T11:41:25.576Z,0.50
2022-11-22T11:43:53.913Z,0.50
2022-11-22T11:46:26.187Z,0.50
2022-11-22T11:49:09.418Z,0.38
2022-11-22T11:51:39.127Z,0.52
2022-11-22T11:54:18.861Z,0.65
2022-11-22T11:56:46.693Z,0.35
2022-11-22T11:59:36.309Z,0.32
2022-11-22T12:02:05.436Z,0.30
2022-11-22T12:04:36.065Z,0.65
2022-11-22T12:07:16.189Z,0.40
2022-11-22T12:09:48.363Z,0.22
2022-11-22T12:12:26.928Z,0.40
2022-11-22T12:15:14.157Z,0.43
2022-11-22T12:17:57.095Z,0.47
2022-11-22T12:20:30.011Z,0.43
2022-11-22T12:23:32.385Z,1.55
2022-11-22T12:25:59.146Z,0.20
2022-11-22T12:28:28.940Z,0.30
2022-11-22T12:31:10.599Z,0.30
2022-11-22T12:33:43.113Z,0.20
2022-11-22T12:36:22.432Z,0.35
2022-11-22T12:38:52.971Z,0.30
2022-11-22T12:41:22.033Z,0.40
2022-11-22T12:43:59.071Z,0.30
2022-11-22T12:46:30.932Z,0.40
2022-11-22T12:49:28.694Z,0.40
2022-11-22T12:52:10.266Z,0.52
2022-11-22T12:54:44.642Z,0.30
2022-11-22T12:57:19.318Z,0.68
2022-11-22T12:59:58.403Z,0.40
2022-11-22T13:02:40.494Z,0.40
2022-11-22T13:05:22.993Z,0.30
2022-11-22T13:08:00.915Z,0.38
2022-11-22T13:10:42.063Z,0.30
2022-11-22T13:13:24.533Z,0.30
2022-11-22T13:15:53.901Z,0.25
2022-11-22T13:18:24.000Z,0.68
2022-11-22T13:21:16.781Z,0.30
2022-11-22T13:24:00.595Z,0.20
2022-11-22T13:26:38.202Z,0.20
2022-11-22T13:29:18.693Z,0.20
2022-11-22T13:32:10.832Z,0.30
2022-11-22T13:34:41.807Z,0.30
2022-11-22T13:37:12.368Z,0.20
2022-11-22T13:39:48.014Z,0.20
2022-11-22T13:42:34.621Z,0.20
2022-11-22T13:45:00.881Z,0.40
2022-11-22T13:47:27.243Z,0.20
2022-11-22T13:49:54.052Z,0.73
2022-11-22T13:52:20.634Z,0.30
2022-11-22T13:54:47.011Z,0.30
2022-11-22T13:57:30.535Z,0.30
2022-11-22T14:00:15.083Z,0.40
2022-11-22T14:02:53.253Z,0.30
2022-11-22T14:05:39.909Z,0.20
2022-11-22T14:08:26.709Z,0.20
2022-11-22T14:10:52.982Z,0.20
2022-11-22T14:13:27.931Z,0.20
2022-11-22T14:16:07.232Z,0.30
2022-11-22T14:18:48.773Z,0.20
2022-11-22T14:21:40.300Z,0.20
2022-11-22T14:24:51.706Z,0.10
2022-11-22T14:27:49.432Z,0.20
2022-11-22T14:30:21.044Z,0.30
2022-11-22T14:33:04.910Z,0.30
2022-11-22T14:35:36.742Z,0.20
2022-11-22T14:38:09.960Z,0.20
2022-11-22T14:40:38.693Z,0.20
2022-11-22T14:43:11.118Z,0.43
2022-11-22T14:45:41.408Z,0.20
2022-11-22T14:48:19.211Z,0.20
2022-11-22T14:50:51.271Z,0.20
2022-11-22T14:53:33.238Z,0.20
2022-11-22T14:56:24.775Z,0.10
2022-11-22T14:59:18.606Z,0.20
2022-11-22T15:02:19.136Z,0.20
2022-11-22T15:09:16.274Z,0.25
2022-11-22T15:09:20.504Z,0.10
2022-11-22T15:11:00.182Z,0.10
2022-11-22T15:14:02.523Z,0.20
2022-11-22T15:59:44.761Z,0.10
2022-11-22T16:02:15.856Z,0.65
2022-11-22T16:06:03.281Z,0.20
2022-11-22T16:07:44.724Z,0.52
2022-11-22T16:10:25.700Z,0.40
2022-11-22T16:12:52.930Z,0.20
2022-11-22T16:15:36.361Z,0.43
2022-11-22T16:18:17.751Z,0.40
2022-11-22T16:21:02.050Z,0.40
2022-11-22T16:23:30.160Z,0.80
2022-11-22T16:25:59.972Z,0.60
2022-11-22T16:28:32.238Z,0.30
2022-11-22T16:31:14.933Z,1.00
2022-11-22T16:33:41.405Z,0.20
2022-11-22T16:36:17.555Z,0.40
2022-11-22T16:38:44.652Z,0.30
2022-11-22T16:41:28.673Z,0.50
2022-11-22T16:43:58.807Z,0.50
2022-11-22T16:46:25.425Z,0.40
2022-11-22T16:48:52.153Z,0.57
2022-11-22T16:51:24.232Z,0.52
2022-11-22T16:53:51.780Z,0.40
2022-11-22T16:56:20.831Z,0.73
2022-11-22T16:58:48.671Z,0.30
2022-11-22T17:01:18.978Z,0.65
2022-11-22T17:03:47.342Z,0.65
2022-11-22T17:06:18.933Z,0.43
2022-11-22T17:08:46.866Z,0.70
2022-11-22T17:11:16.132Z,0.47
2022-11-22T17:13:42.669Z,0.40
2022-11-22T17:16:10.376Z,0.57
2022-11-22T17:18:37.701Z,0.50
2022-11-22T17:21:22.980Z,0.50
2022-11-22T17:23:49.990Z,0.60
2022-11-22T17:26:16.332Z,0.60
2022-11-22T17:28:42.706Z,0.80
2022-11-22T17:31:13.242Z,0.77
2022-11-22T17:33:39.620Z,0.97
2022-11-22T17:36:20.689Z,1.40
2022-11-22T17:38:47.396Z,2.10
2022-11-22T17:41:13.738Z,1.27
2022-11-22T17:43:40.069Z,1.55
2022-11-22T17:46:06.430Z,1.47
2022-11-22T17:48:32.767Z,1.30
2022-11-22T17:50:59.117Z,1.40
2022-11-22T17:53:25.474Z,1.67
2022-11-22T17:58:39.307Z,1.83
2022-11-22T18:01:08.279Z,2.08
2022-11-22T18:03:35.263Z,2.00
2022-11-22T18:06:01.875Z,2.88
2022-11-22T18:08:28.731Z,2.90
2022-11-22T18:10:56.254Z,3.97
2022-11-22T18:13:23.416Z,2.28
2022-11-22T18:15:51.598Z,2.13
2022-11-22T18:18:48.416Z,2.40
2022-11-22T18:21:11.455Z,2.38
2022-11-22T18:23:40.574Z,2.15
2022-11-22T18:29:35.119Z,2.40
2022-11-22T18:31:53.998Z,2.30
2022-11-22T18:34:24.150Z,2.00
2022-11-22T18:37:06.744Z,2.57
2022-11-22T18:39:36.552Z,1.83
2022-11-22T18:42:05.111Z,2.28
2022-11-22T18:44:31.524Z,1.90
2022-11-22T18:46:57.957Z,1.77
2022-11-22T18:49:24.347Z,2.28
2022-11-22T18:51:50.725Z,2.35
2022-11-22T18:54:18.184Z,2.45
2022-11-22T18:56:44.529Z,1.95
2022-11-22T18:59:12.599Z,1.70
2022-11-22T19:01:39.921Z,2.20
2022-11-22T19:04:06.488Z,1.80
2022-11-22T19:06:32.847Z,1.90
2022-11-22T19:08:59.271Z,2.33
2022-11-22T19:11:25.988Z,2.53
2022-11-22T19:13:52.816Z,3.42
2022-11-22T19:16:22.235Z,8.02
2022-11-22T19:18:49.817Z,2.05
2022-11-22T19:21:18.960Z,1.80
2022-11-22T19:23:46.785Z,1.85
2022-11-22T19:26:15.080Z,2.40
2022-11-22T19:28:42.026Z,1.77
2022-11-22T19:31:14.016Z,1.40
2022-11-22T19:33:41.646Z,1.30
2022-11-22T19:36:15.673Z,1.77
2022-11-22T19:38:43.262Z,1.15
2022-11-22T19:41:10.964Z,1.63
2022-11-22T19:43:38.333Z,1.30
2022-11-22T19:46:05.944Z,1.92
2022-11-22T19:48:33.256Z,5.57
2022-11-22T19:51:05.319Z,5.93
2022-11-22T19:53:31.908Z,2.50
2022-11-22T19:56:05.096Z,1.73
2022-11-22T19:58:32.415Z,1.55
2022-11-22T20:01:13.250Z,2.00
2022-11-22T20:03:41.422Z,1.42
2022-11-22T20:06:10.393Z,1.70
2022-11-22T20:08:37.330Z,1.73
2022-11-22T20:11:06.953Z,2.20
2022-11-22T20:13:37.933Z,1.50
2022-11-22T20:16:08.510Z,2.15
2022-11-22T20:18:35.169Z,1.67
2022-11-22T20:21:03.155Z,1.92
2022-11-22T20:23:30.431Z,2.13
2022-11-22T20:26:11.795Z,4.15
2022-11-22T20:28:39.610Z,1.80
2022-11-22T20:31:17.443Z,2.72
2022-11-22T20:33:48.437Z,3.50
2022-11-22T20:36:17.832Z,2.55
2022-11-22T20:38:45.729Z,3.10
2022-11-22T20:41:13.811Z,2.00
2022-11-22T20:43:40.861Z,1.90
2022-11-22T20:46:08.819Z,2.30
2022-11-22T20:48:36.948Z,2.45
2022-11-22T20:51:06.189Z,2.22
2022-11-22T20:53:33.384Z,1.50
2022-11-22T20:55:59.888Z,2.88
2022-11-22T20:58:26.811Z,2.20
2022-11-22T21:00:54.521Z,2.22
2022-11-22T21:03:21.595Z,2.15
2022-11-22T21:05:55.537Z,2.20
2022-11-22T21:08:23.311Z,2.13
2022-11-22T21:10:49.844Z,1.92
2022-11-22T21:13:16.575Z,2.00
2022-11-22T21:15:43.080Z,1.83
2022-11-22T21:18:24.757Z,1.63
2022-11-22T21:20:52.164Z,2.22
2022-11-22T21:23:18.625Z,2.28
2022-11-22T21:25:46.252Z,2.47
2022-11-22T21:28:12.659Z,2.65
2022-11-22T21:30:39.092Z,2.03
2022-11-22T21:33:05.430Z,1.88
2022-11-22T21:35:31.794Z,2.00
2022-11-22T21:37:58.132Z,1.90
2022-11-22T21:40:24.482Z,1.85
2022-11-22T21:42:50.835Z,2.93
2022-11-22T21:45:17.171Z,2.40
2022-11-22T21:47:43.508Z,2.55
2022-11-22T21:50:11.888Z,1.88
2022-11-22T21:52:38.429Z,2.05
2022-11-22T21:55:05.146Z,2.33
2022-11-22T21:57:31.485Z,2.13
2022-11-22T21:59:57.829Z,2.25
2022-11-22T22:02:24.256Z,1.50
2022-11-22T22:04:50.609Z,1.88
2022-11-22T22:07:36.471Z,1.93
2022-11-22T22:10:04.637Z,1.70
2022-11-22T22:12:31.541Z,1.80
2022-11-22T22:14:57.946Z,2.05
2022-11-22T22:17:24.305Z,2.20
2022-11-22T22:19:52.244Z,3.50
2022-11-22T22:22:18.627Z,2.97
2022-11-22T22:24:45.003Z,1.52
2022-11-22T22:27:11.344Z,2.72
2022-11-22T22:29:37.678Z,1.45
2022-11-22T22:32:10.186Z,2.03
2022-11-22T22:34:37.071Z,1.77
2022-11-22T22:37:03.447Z,2.22
2022-11-22T22:39:30.284Z,1.80
2022-11-22T22:41:57.020Z,2.00
2022-11-22T22:44:23.552Z,1.35
2022-11-22T22:46:49.871Z,1.88
2022-11-22T22:49:16.282Z,2.47
2022-11-22T22:51:42.620Z,2.50
2022-11-22T22:54:10.201Z,1.70
2022-11-22T22:56:36.632Z,1.50
2022-11-22T22:59:05.077Z,2.17
2022-11-22T23:01:32.015Z,2.30
2022-11-22T23:04:00.119Z,2.30
2022-11-22T23:06:29.736Z,2.28
2022-11-22T23:08:56.678Z,2.40
2022-11-22T23:11:49.316Z,2.33
2022-11-22T23:14:18.405Z,2.38
2022-11-22T23:16:44.883Z,1.92
2022-11-22T23:19:11.529Z,2.20
2022-11-22T23:21:38.597Z,2.20
2022-11-22T23:24:05.353Z,2.53
2022-11-22T23:26:31.822Z,2.50
2022-11-22T23:28:59.098Z,2.60
2022-11-22T23:31:25.576Z,3.70
2022-11-22T23:33:51.909Z,2.90
2022-11-22T23:36:20.343Z,2.63
2022-11-22T23:38:46.752Z,3.33
2022-11-22T23:41:14.710Z,3.13
2022-11-22T23:43:44.273Z,3.33
2022-11-22T23:46:18.253Z,3.10
2022-11-22T23:49:03.931Z,4.20
2022-11-22T23:51:32.077Z,3.10
2022-11-22T23:54:04.097Z,3.90
2022-11-22T23:56:32.029Z,3.97
2022-11-22T23:58:59.805Z,4.82
